sensor_id;sensor_type;location;lat;lon;timestamp;temperature;humidity
37408;DHT22;24866;50.248;8.252;2023-12-20T00:00:49;6.30;99.90
37408;DHT22;24866;50.248;8.252;2023-12-20T00:03:20;6.20;99.90
37408;DHT22;24866;50.248;8.252;2023-12-20T00:05:50;6.30;99.90
37408;DHT22;24866;50.248;8.252;2023-12-20T00:08:20;6.30;99.90
37408;DHT22;24866;50.248;8.252;2023-12-20T00:10:50;6.20;99.90
37408;DHT22;24866;50.248;8.252;2023-12-20T00:13:19;6.20;99.90
37408;DHT22;24866;50.248;8.252;2023-12-20T00:15:49;6.20;99.90
37408;DHT22;24866;50.248;8.252;2023-12-20T00:20:51;6.20;99.90
37408;DHT22;24866;50.248;8.252;2023-12-20T00:23:20;6.10;99.90
37408;DHT22;24866;50.248;8.252;2023-12-20T00:25:51;6.20;99.90
37408;DHT22;24866;50.248;8.252;2023-12-20T00:28:21;6.20;99.90
37408;DHT22;24866;50.248;8.252;2023-12-20T00:30:51;6.10;99.90
37408;DHT22;24866;50.248;8.252;2023-12-20T00:33:22;6.10;99.90
37408;DHT22;24866;50.248;8.252;2023-12-20T00:35:52;6.10;99.90
37408;DHT22;24866;50.248;8.252;2023-12-20T00:38:22;6.10;99.90
37408;DHT22;24866;50.248;8.252;2023-12-20T00:40:52;6.10;99.90
37408;DHT22;24866;50.248;8.252;2023-12-20T00:43:22;6.10;99.90
37408;DHT22;24866;50.248;8.252;2023-12-20T00:45:52;6.20;99.90
37408;DHT22;24866;50.248;8.252;2023-12-20T00:48:23;6.20;99.90
37408;DHT22;24866;50.248;8.252;2023-12-20T00:50:53;6.10;99.90
37408;DHT22;24866;50.248;8.252;2023-12-20T00:53:22;6.10;99.90
37408;DHT22;24866;50.248;8.252;2023-12-20T00:55:52;6.10;99.90
37408;DHT22;24866;50.248;8.252;2023-12-20T00:58:22;6.20;99.90
37408;DHT22;24866;50.248;8.252;2023-12-20T01:00:52;6.20;99.90
37408;DHT22;24866;50.248;8.252;2023-12-20T01:03:23;6.10;99.90
37408;DHT22;24866;50.248;8.252;2023-12-20T01:05:53;6.10;99.90
37408;DHT22;24866;50.248;8.252;2023-12-20T01:08:23;6.20;99.90
37408;DHT22;24866;50.248;8.252;2023-12-20T01:10:53;6.10;99.90
37408;DHT22;24866;50.248;8.252;2023-12-20T01:13:22;6.10;99.90
37408;DHT22;24866;50.248;8.252;2023-12-20T01:15:52;6.10;99.90
37408;DHT22;24866;50.248;8.252;2023-12-20T01:18:23;6.10;99.90
37408;DHT22;24866;50.248;8.252;2023-12-20T01:20:53;6.20;99.90
37408;DHT22;24866;50.248;8.252;2023-12-20T01:23:23;6.20;99.90
37408;DHT22;24866;50.248;8.252;2023-12-20T01:25:53;6.20;99.90
37408;DHT22;24866;50.248;8.252;2023-12-20T01:28:22;6.20;99.90
37408;DHT22;24866;50.248;8.252;2023-12-20T01:30:52;6.20;99.90
37408;DHT22;24866;50.248;8.252;2023-12-20T01:33:23;6.20;99.90
37408;DHT22;24866;50.248;8.252;2023-12-20T01:35:53;6.20;99.90
37408;DHT22;24866;50.248;8.252;2023-12-20T01:38:23;6.10;99.90
37408;DHT22;24866;50.248;8.252;2023-12-20T01:40:53;6.20;99.90
37408;DHT22;24866;50.248;8.252;2023-12-20T01:43:23;6.20;99.90
37408;DHT22;24866;50.248;8.252;2023-12-20T01:45:53;6.20;99.90
37408;DHT22;24866;50.248;8.252;2023-12-20T01:48:28;6.20;99.90
37408;DHT22;24866;50.248;8.252;2023-12-20T01:50:58;6.20;99.90
37408;DHT22;24866;50.248;8.252;2023-12-20T01:53:29;6.30;99.90
37408;DHT22;24866;50.248;8.252;2023-12-20T01:55:59;6.30;99.90
37408;DHT22;24866;50.248;8.252;2023-12-20T01:58:30;6.30;99.90
37408;DHT22;24866;50.248;8.252;2023-12-20T02:01:00;6.30;99.90
37408;DHT22;24866;50.248;8.252;2023-12-20T02:03:31;6.30;99.90
37408;DHT22;24866;50.248;8.252;2023-12-20T02:06:01;6.30;99.90
37408;DHT22;24866;50.248;8.252;2023-12-20T02:08:31;6.30;99.90
37408;DHT22;24866;50.248;8.252;2023-12-20T02:11:01;6.30;99.90
37408;DHT22;24866;50.248;8.252;2023-12-20T02:13:31;6.30;99.90
37408;DHT22;24866;50.248;8.252;2023-12-20T02:16:01;6.30;99.90
37408;DHT22;24866;50.248;8.252;2023-12-20T02:18:32;6.30;99.90
37408;DHT22;24866;50.248;8.252;2023-12-20T02:21:04;6.30;99.90
37408;DHT22;24866;50.248;8.252;2023-12-20T02:23:35;6.30;99.90
37408;DHT22;24866;50.248;8.252;2023-12-20T02:26:05;6.30;99.90
37408;DHT22;24866;50.248;8.252;2023-12-20T02:28:35;6.40;99.90
37408;DHT22;24866;50.248;8.252;2023-12-20T02:31:05;6.40;99.90
37408;DHT22;24866;50.248;8.252;2023-12-20T02:33:35;6.40;99.90
37408;DHT22;24866;50.248;8.252;2023-12-20T02:36:06;6.40;99.90
37408;DHT22;24866;50.248;8.252;2023-12-20T02:38:37;6.40;99.90
37408;DHT22;24866;50.248;8.252;2023-12-20T02:41:07;6.40;99.90
37408;DHT22;24866;50.248;8.252;2023-12-20T02:43:37;6.40;99.90
37408;DHT22;24866;50.248;8.252;2023-12-20T02:46:07;6.40;99.90
37408;DHT22;24866;50.248;8.252;2023-12-20T02:48:36;6.40;99.90
37408;DHT22;24866;50.248;8.252;2023-12-20T02:51:06;6.40;99.90
37408;DHT22;24866;50.248;8.252;2023-12-20T02:53:37;6.40;99.90
37408;DHT22;24866;50.248;8.252;2023-12-20T02:56:07;6.40;99.90
37408;DHT22;24866;50.248;8.252;2023-12-20T02:58:37;6.40;99.90
37408;DHT22;24866;50.248;8.252;2023-12-20T03:01:07;6.40;99.90
37408;DHT22;24866;50.248;8.252;2023-12-20T03:03:37;6.40;99.90
37408;DHT22;24866;50.248;8.252;2023-12-20T03:06:07;6.40;99.90
37408;DHT22;24866;50.248;8.252;2023-12-20T03:08:38;6.40;99.90
37408;DHT22;24866;50.248;8.252;2023-12-20T03:11:09;6.40;99.90
37408;DHT22;24866;50.248;8.252;2023-12-20T03:13:39;6.40;99.90
37408;DHT22;24866;50.248;8.252;2023-12-20T03:16:09;6.40;99.90
37408;DHT22;24866;50.248;8.252;2023-12-20T03:18:39;6.40;99.90
37408;DHT22;24866;50.248;8.252;2023-12-20T03:21:09;6.50;99.90
37408;DHT22;24866;50.248;8.252;2023-12-20T03:23:40;6.50;99.90
37408;DHT22;24866;50.248;8.252;2023-12-20T03:26:10;6.40;99.90
37408;DHT22;24866;50.248;8.252;2023-12-20T03:28:40;6.40;99.90
37408;DHT22;24866;50.248;8.252;2023-12-20T03:31:10;6.50;99.90
37408;DHT22;24866;50.248;8.252;2023-12-20T03:33:40;6.50;99.90
37408;DHT22;24866;50.248;8.252;2023-12-20T03:36:10;6.50;99.90
37408;DHT22;24866;50.248;8.252;2023-12-20T03:38:41;6.50;99.90
37408;DHT22;24866;50.248;8.252;2023-12-20T03:41:11;6.50;99.90
37408;DHT22;24866;50.248;8.252;2023-12-20T03:43:42;6.50;99.90
37408;DHT22;24866;50.248;8.252;2023-12-20T03:46:11;6.60;99.90
37408;DHT22;24866;50.248;8.252;2023-12-20T03:48:41;6.60;99.90
37408;DHT22;24866;50.248;8.252;2023-12-20T03:51:11;6.70;99.90
37408;DHT22;24866;50.248;8.252;2023-12-20T03:53:42;6.70;99.90
37408;DHT22;24866;50.248;8.252;2023-12-20T03:56:12;6.70;99.90
37408;DHT22;24866;50.248;8.252;2023-12-20T03:58:42;6.70;99.90
37408;DHT22;24866;50.248;8.252;2023-12-20T04:01:12;6.70;99.90
37408;DHT22;24866;50.248;8.252;2023-12-20T04:03:41;6.70;99.90
37408;DHT22;24866;50.248;8.252;2023-12-20T04:06:16;6.70;99.90
37408;DHT22;24866;50.248;8.252;2023-12-20T04:08:47;6.70;99.90
37408;DHT22;24866;50.248;8.252;2023-12-20T04:11:17;6.70;99.90
37408;DHT22;24866;50.248;8.252;2023-12-20T04:13:47;6.70;99.90
37408;DHT22;24866;50.248;8.252;2023-12-20T04:16:17;6.70;99.90
37408;DHT22;24866;50.248;8.252;2023-12-20T04:18:46;6.70;99.90
37408;DHT22;24866;50.248;8.252;2023-12-20T04:21:16;6.60;99.90
37408;DHT22;24866;50.248;8.252;2023-12-20T04:23:47;6.70;99.90
37408;DHT22;24866;50.248;8.252;2023-12-20T04:26:17;6.60;99.90
37408;DHT22;24866;50.248;8.252;2023-12-20T04:28:47;6.50;99.90
37408;DHT22;24866;50.248;8.252;2023-12-20T04:31:17;6.50;99.90
37408;DHT22;24866;50.248;8.252;2023-12-20T04:33:46;6.40;99.90
37408;DHT22;24866;50.248;8.252;2023-12-20T04:36:16;6.30;99.90
37408;DHT22;24866;50.248;8.252;2023-12-20T04:38:47;6.10;99.90
37408;DHT22;24866;50.248;8.252;2023-12-20T04:41:17;6.00;99.90
37408;DHT22;24866;50.248;8.252;2023-12-20T04:43:47;5.90;99.90
37408;DHT22;24866;50.248;8.252;2023-12-20T04:46:17;5.80;99.90
37408;DHT22;24866;50.248;8.252;2023-12-20T04:48:47;5.70;99.90
37408;DHT22;24866;50.248;8.252;2023-12-20T04:51:17;5.60;99.90
37408;DHT22;24866;50.248;8.252;2023-12-20T04:53:48;5.50;99.90
37408;DHT22;24866;50.248;8.252;2023-12-20T04:56:17;5.40;99.90
37408;DHT22;24866;50.248;8.252;2023-12-20T04:58:47;5.40;99.90
37408;DHT22;24866;50.248;8.252;2023-12-20T05:01:17;5.30;99.90
37408;DHT22;24866;50.248;8.252;2023-12-20T05:03:47;5.30;99.90
37408;DHT22;24866;50.248;8.252;2023-12-20T05:06:17;5.30;99.90
37408;DHT22;24866;50.248;8.252;2023-12-20T05:08:48;5.40;99.90
37408;DHT22;24866;50.248;8.252;2023-12-20T05:11:18;5.40;99.90
37408;DHT22;24866;50.248;8.252;2023-12-20T05:13:51;5.40;99.90
37408;DHT22;24866;50.248;8.252;2023-12-20T05:16:20;5.30;99.90
37408;DHT22;24866;50.248;8.252;2023-12-20T05:18:50;5.30;99.90
37408;DHT22;24866;50.248;8.252;2023-12-20T05:21:21;5.30;99.90
37408;DHT22;24866;50.248;8.252;2023-12-20T05:23:52;5.30;99.90
37408;DHT22;24866;50.248;8.252;2023-12-20T05:26:22;5.20;99.90
37408;DHT22;24866;50.248;8.252;2023-12-20T05:28:51;5.20;99.90
37408;DHT22;24866;50.248;8.252;2023-12-20T05:31:22;5.20;99.90
37408;DHT22;24866;50.248;8.252;2023-12-20T05:33:51;5.20;99.90
37408;DHT22;24866;50.248;8.252;2023-12-20T05:36:21;5.20;99.90
37408;DHT22;24866;50.248;8.252;2023-12-20T05:38:53;5.10;99.90
37408;DHT22;24866;50.248;8.252;2023-12-20T05:41:23;5.10;99.90
37408;DHT22;24866;50.248;8.252;2023-12-20T05:43:52;5.00;99.90
37408;DHT22;24866;50.248;8.252;2023-12-20T05:46:22;5.00;99.90
37408;DHT22;24866;50.248;8.252;2023-12-20T05:48:52;5.00;99.90
37408;DHT22;24866;50.248;8.252;2023-12-20T05:51:22;4.90;99.90
37408;DHT22;24866;50.248;8.252;2023-12-20T05:53:53;4.90;99.90
37408;DHT22;24866;50.248;8.252;2023-12-20T05:56:23;4.90;99.90
37408;DHT22;24866;50.248;8.252;2023-12-20T05:58:53;4.80;99.90
37408;DHT22;24866;50.248;8.252;2023-12-20T06:01:23;4.80;99.90
37408;DHT22;24866;50.248;8.252;2023-12-20T06:03:53;4.70;99.90
37408;DHT22;24866;50.248;8.252;2023-12-20T06:06:23;4.80;99.90
37408;DHT22;24866;50.248;8.252;2023-12-20T06:08:54;4.70;99.90
37408;DHT22;24866;50.248;8.252;2023-12-20T06:11:25;4.80;99.90
37408;DHT22;24866;50.248;8.252;2023-12-20T06:13:56;4.70;99.90
37408;DHT22;24866;50.248;8.252;2023-12-20T06:16:25;4.70;99.90
37408;DHT22;24866;50.248;8.252;2023-12-20T06:18:55;4.70;99.90
37408;DHT22;24866;50.248;8.252;2023-12-20T06:21:25;4.70;99.90
37408;DHT22;24866;50.248;8.252;2023-12-20T06:23:56;4.60;99.90
37408;DHT22;24866;50.248;8.252;2023-12-20T06:26:26;4.70;99.90
37408;DHT22;24866;50.248;8.252;2023-12-20T06:28:56;4.70;99.90
37408;DHT22;24866;50.248;8.252;2023-12-20T06:31:26;4.60;99.90
37408;DHT22;24866;50.248;8.252;2023-12-20T06:33:55;4.50;99.90
37408;DHT22;24866;50.248;8.252;2023-12-20T06:36:28;4.50;99.90
37408;DHT22;24866;50.248;8.252;2023-12-20T06:38:59;4.50;99.90
37408;DHT22;24866;50.248;8.252;2023-12-20T06:41:29;4.40;99.90
37408;DHT22;24866;50.248;8.252;2023-12-20T06:43:58;4.50;99.90
37408;DHT22;24866;50.248;8.252;2023-12-20T06:46:28;4.50;99.90
37408;DHT22;24866;50.248;8.252;2023-12-20T06:48:58;4.60;99.90
37408;DHT22;24866;50.248;8.252;2023-12-20T06:51:28;4.50;99.90
37408;DHT22;24866;50.248;8.252;2023-12-20T06:54:00;4.50;99.90
37408;DHT22;24866;50.248;8.252;2023-12-20T06:56:31;4.50;99.90
37408;DHT22;24866;50.248;8.252;2023-12-20T06:59:01;4.50;99.90
37408;DHT22;24866;50.248;8.252;2023-12-20T07:01:30;4.50;99.90
37408;DHT22;24866;50.248;8.252;2023-12-20T07:04:00;4.50;99.90
37408;DHT22;24866;50.248;8.252;2023-12-20T07:06:30;4.60;99.90
37408;DHT22;24866;50.248;8.252;2023-12-20T07:09:01;4.60;99.90
37408;DHT22;24866;50.248;8.252;2023-12-20T07:11:31;4.60;99.90
37408;DHT22;24866;50.248;8.252;2023-12-20T07:14:01;4.60;99.90
37408;DHT22;24866;50.248;8.252;2023-12-20T07:16:31;4.70;99.90
37408;DHT22;24866;50.248;8.252;2023-12-20T07:19:01;4.70;99.90
37408;DHT22;24866;50.248;8.252;2023-12-20T07:21:30;4.70;99.90
37408;DHT22;24866;50.248;8.252;2023-12-20T07:24:02;4.80;99.90
37408;DHT22;24866;50.248;8.252;2023-12-20T07:26:32;4.80;99.90
37408;DHT22;24866;50.248;8.252;2023-12-20T07:29:02;4.80;99.90
37408;DHT22;24866;50.248;8.252;2023-12-20T07:31:32;4.80;99.90
37408;DHT22;24866;50.248;8.252;2023-12-20T07:34:03;4.80;99.90
37408;DHT22;24866;50.248;8.252;2023-12-20T07:36:34;4.90;99.90
37408;DHT22;24866;50.248;8.252;2023-12-20T07:39:05;4.90;99.90
37408;DHT22;24866;50.248;8.252;2023-12-20T07:41:35;4.90;99.90
37408;DHT22;24866;50.248;8.252;2023-12-20T07:44:05;4.90;99.90
37408;DHT22;24866;50.248;8.252;2023-12-20T07:46:35;4.90;99.90
37408;DHT22;24866;50.248;8.252;2023-12-20T07:49:05;5.00;99.90
37408;DHT22;24866;50.248;8.252;2023-12-20T07:51:35;5.00;99.90
37408;DHT22;24866;50.248;8.252;2023-12-20T07:54:08;5.00;99.90
37408;DHT22;24866;50.248;8.252;2023-12-20T07:56:38;5.00;99.90
37408;DHT22;24866;50.248;8.252;2023-12-20T07:59:08;5.00;99.90
37408;DHT22;24866;50.248;8.252;2023-12-20T08:01:38;5.00;99.90
37408;DHT22;24866;50.248;8.252;2023-12-20T08:04:08;5.00;99.90
37408;DHT22;24866;50.248;8.252;2023-12-20T08:06:38;5.00;99.90
37408;DHT22;24866;50.248;8.252;2023-12-20T08:09:09;5.00;99.90
37408;DHT22;24866;50.248;8.252;2023-12-20T08:11:39;5.00;99.90
37408;DHT22;24866;50.248;8.252;2023-12-20T08:14:09;5.10;99.90
37408;DHT22;24866;50.248;8.252;2023-12-20T08:16:39;5.10;99.90
37408;DHT22;24866;50.248;8.252;2023-12-20T08:19:09;5.10;99.90
37408;DHT22;24866;50.248;8.252;2023-12-20T08:21:39;5.20;99.90
37408;DHT22;24866;50.248;8.252;2023-12-20T08:24:10;5.20;99.90
37408;DHT22;24866;50.248;8.252;2023-12-20T08:26:40;5.10;99.90
37408;DHT22;24866;50.248;8.252;2023-12-20T08:29:10;5.20;99.90
37408;DHT22;24866;50.248;8.252;2023-12-20T08:31:42;5.20;99.90
37408;DHT22;24866;50.248;8.252;2023-12-20T08:34:11;5.20;99.90
37408;DHT22;24866;50.248;8.252;2023-12-20T08:36:43;5.30;99.90
37408;DHT22;24866;50.248;8.252;2023-12-20T08:39:14;5.20;99.90
37408;DHT22;24866;50.248;8.252;2023-12-20T08:41:44;5.20;99.90
37408;DHT22;24866;50.248;8.252;2023-12-20T08:44:14;5.30;99.90
37408;DHT22;24866;50.248;8.252;2023-12-20T08:46:44;5.20;99.90
37408;DHT22;24866;50.248;8.252;2023-12-20T08:49:14;5.20;99.90
37408;DHT22;24866;50.248;8.252;2023-12-20T08:51:43;5.30;99.90
37408;DHT22;24866;50.248;8.252;2023-12-20T08:54:15;5.30;99.90
37408;DHT22;24866;50.248;8.252;2023-12-20T08:56:45;5.30;99.90
37408;DHT22;24866;50.248;8.252;2023-12-20T08:59:15;5.40;99.90
37408;DHT22;24866;50.248;8.252;2023-12-20T09:01:47;5.40;99.90
37408;DHT22;24866;50.248;8.252;2023-12-20T09:04:22;5.40;99.90
37408;DHT22;24866;50.248;8.252;2023-12-20T09:06:52;5.40;99.90
37408;DHT22;24866;50.248;8.252;2023-12-20T09:09:23;5.40;99.90
37408;DHT22;24866;50.248;8.252;2023-12-20T09:11:53;5.40;99.90
37408;DHT22;24866;50.248;8.252;2023-12-20T09:14:24;5.40;99.90
37408;DHT22;24866;50.248;8.252;2023-12-20T09:16:54;5.50;99.90
37408;DHT22;24866;50.248;8.252;2023-12-20T09:19:24;5.40;99.90
37408;DHT22;24866;50.248;8.252;2023-12-20T09:21:54;5.50;99.90
37408;DHT22;24866;50.248;8.252;2023-12-20T09:24:25;5.60;99.90
37408;DHT22;24866;50.248;8.252;2023-12-20T09:26:55;5.50;99.90
37408;DHT22;24866;50.248;8.252;2023-12-20T09:29:25;5.60;99.90
37408;DHT22;24866;50.248;8.252;2023-12-20T09:31:55;5.60;99.90
37408;DHT22;24866;50.248;8.252;2023-12-20T09:34:25;5.60;99.90
37408;DHT22;24866;50.248;8.252;2023-12-20T09:36:55;5.70;99.90
37408;DHT22;24866;50.248;8.252;2023-12-20T09:39:26;5.70;99.90
37408;DHT22;24866;50.248;8.252;2023-12-20T09:42:01;5.70;99.90
37408;DHT22;24866;50.248;8.252;2023-12-20T09:44:31;5.70;99.90
37408;DHT22;24866;50.248;8.252;2023-12-20T09:47:04;5.80;99.90
37408;DHT22;24866;50.248;8.252;2023-12-20T09:49:34;5.80;99.90
37408;DHT22;24866;50.248;8.252;2023-12-20T09:52:05;5.80;99.90
37408;DHT22;24866;50.248;8.252;2023-12-20T09:54:37;5.90;99.90
37408;DHT22;24866;50.248;8.252;2023-12-20T09:57:07;5.90;99.90
37408;DHT22;24866;50.248;8.252;2023-12-20T09:59:37;5.90;99.90
37408;DHT22;24866;50.248;8.252;2023-12-20T10:02:12;5.90;99.90
37408;DHT22;24866;50.248;8.252;2023-12-20T10:04:46;5.90;99.90
37408;DHT22;24866;50.248;8.252;2023-12-20T10:07:16;5.90;99.90
37408;DHT22;24866;50.248;8.252;2023-12-20T10:09:48;6.00;99.90
37408;DHT22;24866;50.248;8.252;2023-12-20T10:12:18;6.00;99.90
37408;DHT22;24866;50.248;8.252;2023-12-20T10:14:48;6.00;99.90
37408;DHT22;24866;50.248;8.252;2023-12-20T10:17:17;6.00;99.90
37408;DHT22;24866;50.248;8.252;2023-12-20T10:19:48;6.10;99.90
37408;DHT22;24866;50.248;8.252;2023-12-20T10:22:17;6.10;99.90
37408;DHT22;24866;50.248;8.252;2023-12-20T10:24:49;6.30;99.90
37408;DHT22;24866;50.248;8.252;2023-12-20T10:27:19;6.50;99.90
37408;DHT22;24866;50.248;8.252;2023-12-20T10:29:48;6.40;99.90
37408;DHT22;24866;50.248;8.252;2023-12-20T10:32:23;6.70;99.90
37408;DHT22;24866;50.248;8.252;2023-12-20T10:34:54;6.70;99.90
37408;DHT22;24866;50.248;8.252;2023-12-20T10:37:24;6.70;99.90
37408;DHT22;24866;50.248;8.252;2023-12-20T10:39:57;6.80;99.90
37408;DHT22;24866;50.248;8.252;2023-12-20T10:42:29;6.80;99.90
37408;DHT22;24866;50.248;8.252;2023-12-20T10:45:00;7.00;99.90
37408;DHT22;24866;50.248;8.252;2023-12-20T10:47:31;6.80;99.90
37408;DHT22;24866;50.248;8.252;2023-12-20T10:50:01;7.10;99.90
37408;DHT22;24866;50.248;8.252;2023-12-20T10:52:34;7.00;99.90
37408;DHT22;24866;50.248;8.252;2023-12-20T10:55:07;7.00;99.90
37408;DHT22;24866;50.248;8.252;2023-12-20T11:00:10;6.80;99.90
37408;DHT22;24866;50.248;8.252;2023-12-20T11:02:44;6.70;99.90
37408;DHT22;24866;50.248;8.252;2023-12-20T11:05:26;6.80;99.90
37408;DHT22;24866;50.248;8.252;2023-12-20T11:08:02;6.80;99.90
37408;DHT22;24866;50.248;8.252;2023-12-20T11:10:39;6.70;99.90
37408;DHT22;24866;50.248;8.252;2023-12-20T11:13:17;6.70;99.90
37408;DHT22;24866;50.248;8.252;2023-12-20T11:15:49;6.70;99.90
37408;DHT22;24866;50.248;8.252;2023-12-20T11:18:19;6.80;99.90
37408;DHT22;24866;50.248;8.252;2023-12-20T11:20:49;6.80;99.90
37408;DHT22;24866;50.248;8.252;2023-12-20T11:23:19;6.70;99.90
37408;DHT22;24866;50.248;8.252;2023-12-20T11:25:53;6.60;99.90
37408;DHT22;24866;50.248;8.252;2023-12-20T11:28:24;6.70;99.90
37408;DHT22;24866;50.248;8.252;2023-12-20T11:30:55;6.60;99.90
37408;DHT22;24866;50.248;8.252;2023-12-20T11:33:30;6.60;99.90
37408;DHT22;24866;50.248;8.252;2023-12-20T11:36:00;6.60;99.90
37408;DHT22;24866;50.248;8.252;2023-12-20T11:38:36;6.50;99.90
37408;DHT22;24866;50.248;8.252;2023-12-20T11:41:08;6.60;99.90
37408;DHT22;24866;50.248;8.252;2023-12-20T11:43:38;6.50;99.90
37408;DHT22;24866;50.248;8.252;2023-12-20T11:46:09;6.50;99.90
37408;DHT22;24866;50.248;8.252;2023-12-20T11:48:39;6.50;99.90
37408;DHT22;24866;50.248;8.252;2023-12-20T11:51:09;6.50;99.90
37408;DHT22;24866;50.248;8.252;2023-12-20T11:53:40;6.60;99.90
37408;DHT22;24866;50.248;8.252;2023-12-20T11:56:12;6.60;99.90
37408;DHT22;24866;50.248;8.252;2023-12-20T11:58:42;6.60;99.90
37408;DHT22;24866;50.248;8.252;2023-12-20T12:01:12;6.60;99.90
37408;DHT22;24866;50.248;8.252;2023-12-20T12:03:42;6.80;99.90
37408;DHT22;24866;50.248;8.252;2023-12-20T12:06:12;6.70;99.90
37408;DHT22;24866;50.248;8.252;2023-12-20T12:08:43;6.80;99.90
37408;DHT22;24866;50.248;8.252;2023-12-20T12:11:14;6.90;99.90
37408;DHT22;24866;50.248;8.252;2023-12-20T12:13:44;7.00;99.90
37408;DHT22;24866;50.248;8.252;2023-12-20T12:16:17;6.90;99.90
37408;DHT22;24866;50.248;8.252;2023-12-20T12:18:55;6.90;99.90
37408;DHT22;24866;50.248;8.252;2023-12-20T12:21:25;6.80;99.90
37408;DHT22;24866;50.248;8.252;2023-12-20T12:24:06;6.80;99.90
37408;DHT22;24866;50.248;8.252;2023-12-20T12:26:37;6.80;99.90
37408;DHT22;24866;50.248;8.252;2023-12-20T12:29:08;6.60;99.90
37408;DHT22;24866;50.248;8.252;2023-12-20T12:31:38;6.60;99.90
37408;DHT22;24866;50.248;8.252;2023-12-20T12:34:08;6.50;99.90
37408;DHT22;24866;50.248;8.252;2023-12-20T12:36:39;6.40;99.90
37408;DHT22;24866;50.248;8.252;2023-12-20T12:39:12;6.40;99.90
37408;DHT22;24866;50.248;8.252;2023-12-20T12:41:45;6.30;99.90
37408;DHT22;24866;50.248;8.252;2023-12-20T12:44:16;6.30;99.90
37408;DHT22;24866;50.248;8.252;2023-12-20T12:46:46;6.40;99.90
37408;DHT22;24866;50.248;8.252;2023-12-20T12:49:19;6.30;99.90
37408;DHT22;24866;50.248;8.252;2023-12-20T12:51:49;6.40;99.90
37408;DHT22;24866;50.248;8.252;2023-12-20T12:54:19;6.30;99.90
37408;DHT22;24866;50.248;8.252;2023-12-20T12:56:50;6.30;99.90
37408;DHT22;24866;50.248;8.252;2023-12-20T12:59:21;6.30;99.90
37408;DHT22;24866;50.248;8.252;2023-12-20T13:01:51;6.30;99.90
37408;DHT22;24866;50.248;8.252;2023-12-20T13:04:21;6.30;99.90
37408;DHT22;24866;50.248;8.252;2023-12-20T13:06:51;6.40;99.90
37408;DHT22;24866;50.248;8.252;2023-12-20T13:09:21;6.50;99.90
37408;DHT22;24866;50.248;8.252;2023-12-20T13:11:52;6.40;99.90
37408;DHT22;24866;50.248;8.252;2023-12-20T13:14:22;6.50;99.90
37408;DHT22;24866;50.248;8.252;2023-12-20T13:16:52;6.50;99.90
37408;DHT22;24866;50.248;8.252;2023-12-20T13:19:22;6.50;99.90
37408;DHT22;24866;50.248;8.252;2023-12-20T13:21:52;6.50;99.90
37408;DHT22;24866;50.248;8.252;2023-12-20T13:24:23;6.50;99.90
37408;DHT22;24866;50.248;8.252;2023-12-20T13:26:54;6.50;99.90
37408;DHT22;24866;50.248;8.252;2023-12-20T13:29:24;6.50;99.90
37408;DHT22;24866;50.248;8.252;2023-12-20T13:31:55;6.50;99.90
37408;DHT22;24866;50.248;8.252;2023-12-20T13:34:26;6.50;99.90
37408;DHT22;24866;50.248;8.252;2023-12-20T13:36:56;6.50;99.90
37408;DHT22;24866;50.248;8.252;2023-12-20T13:39:26;6.50;99.90
37408;DHT22;24866;50.248;8.252;2023-12-20T13:41:57;6.60;99.90
37408;DHT22;24866;50.248;8.252;2023-12-20T13:44:27;6.50;99.90
37408;DHT22;24866;50.248;8.252;2023-12-20T13:46:57;6.50;99.90
37408;DHT22;24866;50.248;8.252;2023-12-20T13:49:27;6.50;99.90
37408;DHT22;24866;50.248;8.252;2023-12-20T13:51:57;6.50;99.90
37408;DHT22;24866;50.248;8.252;2023-12-20T13:54:27;6.50;99.90
37408;DHT22;24866;50.248;8.252;2023-12-20T13:56:58;6.50;99.90
37408;DHT22;24866;50.248;8.252;2023-12-20T13:59:28;6.50;99.90
37408;DHT22;24866;50.248;8.252;2023-12-20T14:01:58;6.60;99.90
37408;DHT22;24866;50.248;8.252;2023-12-20T14:04:29;6.50;99.90
37408;DHT22;24866;50.248;8.252;2023-12-20T14:06:59;6.50;99.90
37408;DHT22;24866;50.248;8.252;2023-12-20T14:09:29;6.50;99.90
37408;DHT22;24866;50.248;8.252;2023-12-20T14:12:00;6.50;99.90
37408;DHT22;24866;50.248;8.252;2023-12-20T14:14:30;6.50;99.90
37408;DHT22;24866;50.248;8.252;2023-12-20T14:17:00;6.50;99.90
37408;DHT22;24866;50.248;8.252;2023-12-20T14:19:30;6.50;99.90
37408;DHT22;24866;50.248;8.252;2023-12-20T14:22:00;6.50;99.90
37408;DHT22;24866;50.248;8.252;2023-12-20T14:24:31;6.50;99.90
37408;DHT22;24866;50.248;8.252;2023-12-20T14:27:02;6.50;99.90
37408;DHT22;24866;50.248;8.252;2023-12-20T14:29:32;6.50;99.90
37408;DHT22;24866;50.248;8.252;2023-12-20T14:32:02;6.40;99.90
37408;DHT22;24866;50.248;8.252;2023-12-20T14:34:33;6.40;99.90
37408;DHT22;24866;50.248;8.252;2023-12-20T14:37:03;6.40;99.90
37408;DHT22;24866;50.248;8.252;2023-12-20T14:39:34;6.40;99.90
37408;DHT22;24866;50.248;8.252;2023-12-20T14:42:09;6.40;99.90
37408;DHT22;24866;50.248;8.252;2023-12-20T14:44:42;6.40;99.90
37408;DHT22;24866;50.248;8.252;2023-12-20T14:47:12;6.30;99.90
37408;DHT22;24866;50.248;8.252;2023-12-20T14:49:43;6.40;99.90
37408;DHT22;24866;50.248;8.252;2023-12-20T14:52:13;6.30;99.90
37408;DHT22;24866;50.248;8.252;2023-12-20T14:54:43;6.30;99.90
37408;DHT22;24866;50.248;8.252;2023-12-20T14:57:14;6.30;99.90
37408;DHT22;24866;50.248;8.252;2023-12-20T14:59:44;6.30;99.90
37408;DHT22;24866;50.248;8.252;2023-12-20T15:02:14;6.30;99.90
37408;DHT22;24866;50.248;8.252;2023-12-20T15:04:44;6.30;99.90
37408;DHT22;24866;50.248;8.252;2023-12-20T15:07:14;6.30;99.90
37408;DHT22;24866;50.248;8.252;2023-12-20T15:09:44;6.20;99.90
37408;DHT22;24866;50.248;8.252;2023-12-20T15:12:17;6.20;99.90
37408;DHT22;24866;50.248;8.252;2023-12-20T15:14:47;6.20;99.90
37408;DHT22;24866;50.248;8.252;2023-12-20T15:17:17;6.20;99.90
37408;DHT22;24866;50.248;8.252;2023-12-20T15:19:47;6.20;99.90
37408;DHT22;24866;50.248;8.252;2023-12-20T15:22:17;6.10;99.90
37408;DHT22;24866;50.248;8.252;2023-12-20T15:24:47;6.20;99.90
37408;DHT22;24866;50.248;8.252;2023-12-20T15:27:18;6.20;99.90
37408;DHT22;24866;50.248;8.252;2023-12-20T15:29:48;6.20;99.90
37408;DHT22;24866;50.248;8.252;2023-12-20T15:32:20;6.20;99.90
37408;DHT22;24866;50.248;8.252;2023-12-20T15:34:51;6.20;99.90
37408;DHT22;24866;50.248;8.252;2023-12-20T15:37:21;6.20;99.90
37408;DHT22;24866;50.248;8.252;2023-12-20T15:39:55;6.20;99.90
37408;DHT22;24866;50.248;8.252;2023-12-20T15:42:26;6.20;99.90
37408;DHT22;24866;50.248;8.252;2023-12-20T15:44:56;6.20;99.90
37408;DHT22;24866;50.248;8.252;2023-12-20T15:47:26;6.20;99.90
37408;DHT22;24866;50.248;8.252;2023-12-20T15:49:56;6.20;99.90
37408;DHT22;24866;50.248;8.252;2023-12-20T15:52:26;6.20;99.90
37408;DHT22;24866;50.248;8.252;2023-12-20T15:54:56;6.30;99.90
37408;DHT22;24866;50.248;8.252;2023-12-20T15:57:27;6.30;99.90
37408;DHT22;24866;50.248;8.252;2023-12-20T15:59:57;6.30;99.90
37408;DHT22;24866;50.248;8.252;2023-12-20T16:02:27;6.30;99.90
37408;DHT22;24866;50.248;8.252;2023-12-20T16:04:57;6.30;99.90
37408;DHT22;24866;50.248;8.252;2023-12-20T16:07:27;6.30;99.90
37408;DHT22;24866;50.248;8.252;2023-12-20T16:09:57;6.30;99.90